createdAt,value
2022-08-21T00:00:51.079Z,100.00
2022-08-21T00:05:54.796Z,100.00
2022-08-21T00:10:58.623Z,100.00
2022-08-21T00:16:02.342Z,100.00
2022-08-21T00:21:05.548Z,100.00
2022-08-21T00:26:09.328Z,100.00
2022-08-21T00:31:13.155Z,100.00
2022-08-21T00:36:16.629Z,100.00
2022-08-21T00:41:37.067Z,100.00
2022-08-21T00:46:44.135Z,100.00
2022-08-21T00:51:54.702Z,100.00
2022-08-21T00:57:03.951Z,100.00
2022-08-21T01:02:10.286Z,100.00
2022-08-21T01:07:14.874Z,100.00
2022-08-21T01:12:18.817Z,100.00
2022-08-21T01:17:22.726Z,100.00
2022-08-21T01:22:26.447Z,100.00
2022-08-21T01:27:29.861Z,100.00
2022-08-21T01:32:33.273Z,100.00
2022-08-21T01:37:36.794Z,100.00
2022-08-21T01:42:40.407Z,100.00
2022-08-21T01:47:45.049Z,100.00
2022-08-21T01:52:49.592Z,100.00
2022-08-21T01:57:53.105Z,100.00
2022-08-21T02:02:57.363Z,100.00
2022-08-21T02:08:01.163Z,100.00
2022-08-21T02:13:05.086Z,100.00
2022-08-21T02:18:08.501Z,100.00
2022-08-21T02:23:14.062Z,100.00
2022-08-21T02:28:17.478Z,100.00
2022-08-21T02:33:21.103Z,100.00
2022-08-21T02:38:25.838Z,100.00
2022-08-21T02:43:29.970Z,100.00
2022-08-21T02:48:34.980Z,100.00
2022-08-21T02:53:39.357Z,100.00
2022-08-21T02:58:48.913Z,100.00
2022-08-21T03:03:52.840Z,100.00
2022-08-21T03:08:56.459Z,100.00
2022-08-21T03:13:59.667Z,100.00
2022-08-21T03:19:04.484Z,100.00
2022-08-21T03:24:08.421Z,100.00
2022-08-21T03:29:12.110Z,100.00
2022-08-21T03:34:15.573Z,100.00
2022-08-21T03:39:19.907Z,100.00
2022-08-21T03:44:23.525Z,100.00
2022-08-21T03:49:27.510Z,100.00
2022-08-21T03:54:31.275Z,100.00
2022-08-21T03:59:34.689Z,100.00
2022-08-21T04:04:38.509Z,100.00
2022-08-21T04:09:41.924Z,100.00
2022-08-21T04:14:45.850Z,100.00
2022-08-21T04:19:53.188Z,100.00
2022-08-21T04:24:57.182Z,100.00
2022-08-21T04:30:01.414Z,100.00
2022-08-21T04:35:10.166Z,100.00
2022-08-21T04:40:15.673Z,100.00
2022-08-21T04:45:23.226Z,100.00
2022-08-21T04:50:37.698Z,100.00
2022-08-21T04:55:43.232Z,100.00
2022-08-21T05:00:47.600Z,100.00
2022-08-21T05:05:51.269Z,100.00
2022-08-21T05:11:00.169Z,100.00
2022-08-21T05:16:04.596Z,100.00
2022-08-21T05:21:07.911Z,100.00
2022-08-21T05:26:18.141Z,100.00
2022-08-21T05:31:22.207Z,100.00
2022-08-21T05:36:25.623Z,100.00
2022-08-21T05:41:28.932Z,100.00
2022-08-21T05:46:32.487Z,100.00
2022-08-21T05:51:36.585Z,100.00
2022-08-21T05:56:40.197Z,100.00
2022-08-21T06:01:43.573Z,100.00
2022-08-21T06:06:48.994Z,100.00
2022-08-21T06:11:52.382Z,100.00
2022-08-21T06:16:55.694Z,100.00
2022-08-21T06:21:59.517Z,100.00
2022-08-21T06:27:09.586Z,100.00
2022-08-21T06:32:14.051Z,100.00
2022-08-21T06:37:19.590Z,100.00
2022-08-21T06:42:23.000Z,100.00
2022-08-21T06:47:31.537Z,100.00
2022-08-21T06:52:38.940Z,100.00
2022-08-21T06:57:42.460Z,100.00
2022-08-21T07:02:51.578Z,100.00
2022-08-21T07:07:55.433Z,100.00
2022-08-21T07:13:00.551Z,100.00
2022-08-21T07:18:05.223Z,100.00
2022-08-21T07:23:15.554Z,100.00
2022-08-21T07:28:19.217Z,100.00
2022-08-21T07:33:24.620Z,100.00
2022-08-21T07:38:28.456Z,100.00
2022-08-21T07:43:31.921Z,100.00
2022-08-21T07:48:35.137Z,100.00
2022-08-21T07:53:39.502Z,100.00
2022-08-21T07:58:42.758Z,100.00
2022-08-21T08:03:46.596Z,100.00
2022-08-21T08:08:50.237Z,100.00
2022-08-21T08:13:53.735Z,100.00
2022-08-21T08:18:57.041Z,100.00
2022-08-21T08:24:00.680Z,100.00
2022-08-21T08:29:23.635Z,100.00
2022-08-21T08:34:26.896Z,100.00
2022-08-21T08:39:31.070Z,100.00
2022-08-21T08:44:35.833Z,100.00
2022-08-21T08:49:45.498Z,100.00
2022-08-21T08:55:04.452Z,100.00
2022-08-21T09:00:12.126Z,100.00
2022-08-21T09:05:26.699Z,100.00
2022-08-21T09:10:36.804Z,100.00
2022-08-21T09:16:03.575Z,100.00
2022-08-21T09:21:37.546Z,100.00
2022-08-21T09:27:00.750Z,100.00
2022-08-21T09:32:38.331Z,100.00
2022-08-21T09:38:08.480Z,100.00
2022-08-21T09:43:22.162Z,100.00
2022-08-21T09:48:32.741Z,100.00
2022-08-21T09:53:44.238Z,100.00
2022-08-21T09:58:51.402Z,100.00
2022-08-21T10:04:10.406Z,100.00
2022-08-21T10:09:21.482Z,100.00
2022-08-21T10:14:46.359Z,100.00
2022-08-21T10:20:02.784Z,100.00
2022-08-21T10:25:12.033Z,100.00
2022-08-21T10:30:26.911Z,100.00
2022-08-21T10:35:38.212Z,100.00
2022-08-21T10:40:44.491Z,100.00
2022-08-21T10:45:54.355Z,100.00
2022-08-21T10:51:28.972Z,100.00
2022-08-21T10:56:37.739Z,100.00
2022-08-21T11:01:59.174Z,100.00
2022-08-21T11:07:17.392Z,100.00
2022-08-21T11:12:35.083Z,100.00
2022-08-21T11:17:48.735Z,100.00
2022-08-21T11:23:03.673Z,100.00
2022-08-21T11:28:28.127Z,100.00
2022-08-21T11:33:53.965Z,100.00
2022-08-21T11:39:33.425Z,99.88
2022-08-21T11:45:08.685Z,97.61
2022-08-21T11:50:35.766Z,99.90
2022-08-21T11:55:52.376Z,100.00
2022-08-21T12:01:02.241Z,98.39
2022-08-21T12:06:12.927Z,93.79
2022-08-21T12:11:19.101Z,98.19
2022-08-21T12:16:36.091Z,97.47
2022-08-21T12:21:54.146Z,98.50
2022-08-21T12:26:59.163Z,93.83
2022-08-21T12:32:06.922Z,91.72
2022-08-21T12:37:23.227Z,92.48
2022-08-21T12:42:40.990Z,90.65
2022-08-21T12:48:01.536Z,87.32
2022-08-21T12:53:20.946Z,86.65
2022-08-21T12:58:26.029Z,81.51
2022-08-21T13:03:30.518Z,80.48
2022-08-21T13:08:41.643Z,79.30
2022-08-21T13:13:51.342Z,78.88
2022-08-21T13:18:59.192Z,75.89
2022-08-21T13:24:40.766Z,73.95
2022-08-21T13:29:40.733Z,74.81
2022-08-21T13:34:49.023Z,74.96
2022-08-21T13:39:57.418Z,74.36
2022-08-21T13:45:00.697Z,75.13
2022-08-21T13:50:04.827Z,75.62
2022-08-21T13:55:15.107Z,76.56
2022-08-21T14:00:26.299Z,77.53
2022-08-21T14:05:35.416Z,78.44
2022-08-21T14:10:45.924Z,79.91
2022-08-21T14:15:58.253Z,81.50
2022-08-21T14:21:26.675Z,83.17
2022-08-21T14:26:30.263Z,83.37
2022-08-21T14:31:36.768Z,84.15
2022-08-21T14:36:46.463Z,84.91
2022-08-21T14:41:50.538Z,91.07
2022-08-21T14:46:56.418Z,91.87
2022-08-21T14:52:00.593Z,91.45
2022-08-21T14:57:11.135Z,92.26
2022-08-21T15:02:14.535Z,94.65
2022-08-21T15:07:17.745Z,95.18
2022-08-21T15:12:21.260Z,95.36
2022-08-21T15:17:24.673Z,96.00
2022-08-21T15:22:28.659Z,96.36
2022-08-21T15:27:32.601Z,96.24
2022-08-21T15:32:36.350Z,97.90
2022-08-21T15:37:39.759Z,99.89
2022-08-21T15:42:44.197Z,99.99
2022-08-21T15:47:50.374Z,100.00
2022-08-21T15:52:54.403Z,100.00
2022-08-21T15:58:00.794Z,100.00
2022-08-21T16:03:08.422Z,100.00
2022-08-21T16:08:12.277Z,100.00
2022-08-21T16:13:26.593Z,100.00
2022-08-21T16:18:30.004Z,100.00
2022-08-21T16:23:36.587Z,100.00
2022-08-21T16:28:43.220Z,100.00
2022-08-21T16:33:51.917Z,100.00
2022-08-21T16:39:01.662Z,100.00
2022-08-21T16:44:07.242Z,100.00
2022-08-21T16:49:13.012Z,100.00
2022-08-21T16:54:16.426Z,100.00
2022-08-21T16:59:19.738Z,100.00
2022-08-21T17:04:23.048Z,100.00
2022-08-21T17:09:26.662Z,100.00
2022-08-21T17:14:30.079Z,100.00
2022-08-21T17:19:34.005Z,100.00
2022-08-21T17:24:38.382Z,100.00
2022-08-21T17:29:42.161Z,100.00
2022-08-21T17:34:46.395Z,100.00
2022-08-21T17:39:49.722Z,100.00
2022-08-21T17:44:53.220Z,100.00
2022-08-21T17:49:56.530Z,100.00
2022-08-21T17:54:59.945Z,100.00
2022-08-21T18:00:07.098Z,100.00
2022-08-21T18:05:13.443Z,100.00
2022-08-21T18:10:17.817Z,100.00
2022-08-21T18:15:21.644Z,100.00
2022-08-21T18:20:24.998Z,100.00
2022-08-21T18:25:29.291Z,100.00
2022-08-21T18:30:35.593Z,100.00
2022-08-21T18:35:39.029Z,100.00
2022-08-21T18:40:47.474Z,100.00
2022-08-21T18:45:51.844Z,100.00
2022-08-21T18:57:57.282Z,100.00
2022-08-21T19:03:01.907Z,100.00
2022-08-21T19:13:36.231Z,100.00
2022-08-21T19:18:41.574Z,100.00
2022-08-21T19:23:52.600Z,100.00
2022-08-21T19:28:59.753Z,100.00
2022-08-21T19:34:07.405Z,100.00
2022-08-21T19:39:13.095Z,100.00
2022-08-21T19:44:23.639Z,100.00
2022-08-21T19:49:33.278Z,100.00
2022-08-21T19:54:37.211Z,100.00
2022-08-21T19:59:42.369Z,100.00
2022-08-21T20:04:53.753Z,100.00
2022-08-21T20:10:10.800Z,100.00
2022-08-21T20:15:23.429Z,100.00
2022-08-21T20:20:26.739Z,100.00
2022-08-21T20:25:36.969Z,100.00
2022-08-21T20:30:46.813Z,100.00
2022-08-21T20:36:05.257Z,100.00
2022-08-21T20:41:21.165Z,100.00
2022-08-21T20:46:27.020Z,100.00
2022-08-21T20:51:39.832Z,100.00
2022-08-21T20:56:56.391Z,100.00
2022-08-21T21:02:15.993Z,100.00
2022-08-21T21:07:34.501Z,100.00
2022-08-21T21:12:43.028Z,100.00
2022-08-21T21:17:55.095Z,100.00
2022-08-21T21:23:12.499Z,100.00
2022-08-21T21:28:22.979Z,100.00
2022-08-21T21:33:28.699Z,100.00
2022-08-21T21:49:52.555Z,100.00
2022-08-21T21:55:18.046Z,100.00
2022-08-21T22:00:27.244Z,100.00
2022-08-21T22:05:33.615Z,100.00
2022-08-21T22:10:47.271Z,100.00
2022-08-21T22:15:53.094Z,100.00
2022-08-21T22:21:17.542Z,100.00
2022-08-21T22:32:08.380Z,100.00
2022-08-21T22:37:13.115Z,100.00
2022-08-21T22:42:25.610Z,100.00
2022-08-21T22:47:37.542Z,100.00
2022-08-21T22:52:47.380Z,100.00
2022-08-21T22:58:11.719Z,100.00
2022-08-21T23:08:55.818Z,100.00
2022-08-21T23:13:58.899Z,100.00
2022-08-21T23:19:27.167Z,100.00
2022-08-21T23:24:34.342Z,100.00
2022-08-21T23:29:45.022Z,100.00
2022-08-21T23:35:22.455Z,100.00
2022-08-21T23:40:37.521Z,100.00
2022-08-21T23:46:04.977Z,100.00
2022-08-21T23:51:37.675Z,100.00
2022-08-21T23:57:00.362Z,100.00
